TimeCDT,TemperatureF,Dew PointF,Humidity,Sea Level PressureIn,VisibilityMPH,Wind Direction,Wind SpeedMPH,Gust SpeedMPH,PrecipitationIn,Events,Conditions,WindDirDegrees,DateUTC
12:58 AM,74.1,62.6,67,29.63,10.0,SE,11.5,-,N/A,,Clear,140,2013-03-23 05:58:00
1:58 AM,72.3,63.0,72,29.64,10.0,ESE,10.4,-,N/A,,Clear,120,2013-03-23 06:58:00
2:58 AM,70.5,64.2,80,29.63,10.0,SE,8.1,-,N/A,,Clear,130,2013-03-23 07:58:00
3:58 AM,70.2,65.1,84,29.62,10.0,ESE,12.7,-,N/A,,Mostly Cloudy,120,2013-03-23 08:58:00
4:28 AM,69.8,66.2,88,29.66,10.0,SE,9.2,-,N/A,,Mostly Cloudy,140,2013-03-23 09:28:00
4:58 AM,70.0,65.7,86,29.62,10.0,SE,13.8,-,N/A,,Overcast,140,2013-03-23 09:58:00
5:53 AM,69.8,64.4,83,29.67,10.0,SE,12.7,-,N/A,,Overcast,130,2013-03-23 10:53:00
5:58 AM,69.4,65.3,87,29.62,10.0,SE,13.8,-,N/A,,Overcast,140,2013-03-23 10:58:00
6:58 AM,68.7,65.3,89,29.64,9.0,SE,10.4,-,N/A,,Overcast,130,2013-03-23 11:58:00
7:13 AM,68.0,66.2,94,29.69,10.0,SE,8.1,-,N/A,,Overcast,140,2013-03-23 12:13:00
7:28 AM,68.0,66.2,94,29.69,10.0,SE,8.1,-,N/A,,Overcast,130,2013-03-23 12:28:00
7:58 AM,68.7,65.7,90,29.68,9.0,East,6.9,-,N/A,,Overcast,100,2013-03-23 12:58:00
8:18 AM,68.0,66.2,94,29.72,10.0,East,5.8,-,N/A,,Overcast,100,2013-03-23 13:18:00
8:28 AM,68.0,66.2,94,29.72,10.0,SE,4.6,-,N/A,,Mostly Cloudy,130,2013-03-23 13:28:00
8:43 AM,69.8,66.2,88,29.72,10.0,SE,5.8,-,N/A,,Scattered Clouds,140,2013-03-23 13:43:00
8:58 AM,69.6,66.0,88,29.69,10.0,SSE,5.8,-,N/A,,Partly Cloudy,160,2013-03-23 13:58:00
9:23 AM,69.8,66.2,88,29.73,10.0,South,5.8,-,N/A,,Mostly Cloudy,170,2013-03-23 14:23:00
9:33 AM,71.6,66.2,83,29.74,10.0,SSE,5.8,-,N/A,,Mostly Cloudy,150,2013-03-23 14:33:00
9:43 AM,71.6,66.2,83,29.74,10.0,South,5.8,-,N/A,,Mostly Cloudy,180,2013-03-23 14:43:00
9:53 AM,71.6,66.2,83,29.74,10.0,South,3.5,-,N/A,,Scattered Clouds,170,2013-03-23 14:53:00
9:58 AM,71.8,66.0,82,29.71,10.0,South,4.6,-,N/A,,Scattered Clouds,180,2013-03-23 14:58:00
10:03 AM,71.6,66.2,83,29.74,10.0,SSW,8.1,-,N/A,,Mostly Cloudy,200,2013-03-23 15:03:00
10:23 AM,73.4,66.2,78,29.74,10.0,WSW,4.6,-,N/A,,Scattered Clouds,240,2013-03-23 15:23:00
10:28 AM,73.4,66.2,78,29.74,10.0,West,8.1,-,N/A,,Mostly Cloudy,270,2013-03-23 15:28:00
10:33 AM,73.4,66.2,78,29.74,10.0,West,6.9,-,N/A,,Scattered Clouds,260,2013-03-23 15:33:00
10:58 AM,75.6,64.2,68,29.70,9.0,West,6.9,-,N/A,,Scattered Clouds,260,2013-03-23 15:58:00
11:58 AM,78.4,63.3,60,29.70,10.0,WSW,2.3,-,N/A,,Clear,250,2013-03-23 16:58:00
12:58 PM,83.7,53.4,35,29.67,10.0,NW,12.7,18.4,N/A,,Clear,320,2013-03-23 17:58:00
1:58 PM,84.7,55.4,37,29.63,10.0,NNE,9.2,-,N/A,,Clear,20,2013-03-23 18:58:00
2:58 PM,90.0,33.8,14,29.59,10.0,NW,12.7,21.9,N/A,,Clear,320,2013-03-23 19:58:00
3:46 PM,91.4,32.0,12,29.60,10.0,West,12.7,-,N/A,,Clear,270,2013-03-23 20:46:00
3:58 PM,90.9,33.8,13,29.56,10.0,NW,11.5,20.7,N/A,,Clear,310,2013-03-23 20:58:00
4:26 PM,91.4,32.0,12,29.59,10.0,NW,15.0,20.7,N/A,,Clear,320,2013-03-23 21:26:00
4:58 PM,90.9,30.0,11,29.55,10.0,NNW,11.5,-,N/A,,Clear,340,2013-03-23 21:58:00
5:58 PM,92.1,20.1,7,29.54,10.0,WNW,16.1,21.9,N/A,,Clear,300,2013-03-23 22:58:00
6:04 PM,91.4,19.4,7,29.58,10.0,WNW,12.7,25.3,N/A,,Clear,290,2013-03-23 23:04:00
6:11 PM,91.4,19.4,7,29.58,10.0,NNW,15.0,25.3,N/A,,Clear,330,2013-03-23 23:11:00
6:58 PM,90.9,17.8,7,29.55,10.0,NW,18.4,-,N/A,,Clear,310,2013-03-23 23:58:00
7:58 PM,86.5,13.1,6,29.56,10.0,NW,20.7,27.6,N/A,,Clear,320,2013-03-24 00:58:00
8:58 PM,83.1,13.3,7,29.61,10.0,NW,13.8,-,N/A,,Clear,320,2013-03-24 01:58:00
9:58 PM,79.7,13.8,8,29.64,10.0,NW,10.4,-,N/A,,Clear,320,2013-03-24 02:58:00
10:58 PM,75.0,17.4,11,29.66,10.0,NNW,10.4,-,N/A,,Clear,340,2013-03-24 03:58:00
11:58 PM,68.4,16.2,14,29.69,10.0,NW,4.6,-,N/A,,Clear,310,2013-03-24 04:58:00